Terminal Aerodrome Forecast
Issued by NWS Portland, OR

Home | Current Version | Previous Version | Text Only | Print | Product List | Glossary On
Versions: 1 2 3 4 5 6 7 8 9 10 11 12 13 14 15 16 17
000
FTUS46 KPQR 041141
TAFAST
TAF
KAST 041141Z 0412/0512 29008KT P6SM -RA SCT015 SCT025 OVC035
     FM041500 31008KT P6SM -SHRA SCT025 BKN040
     FM041900 31014KT P6SM VCSH SCT025 BKN040
     FM050300 28007KT P6SM -RA SCT025 OVC040
     FM050900 22010KT P6SM -RA BKN025 OVC040=

USA.gov is the U.S. government's official web portal to all federal, state and local government web resources and services.